Nearby METAR Reports

 

KBJC - Broomfield/Jeffc, Colorado, USA
Distance from station: NNW 11mi, 17km
Updated: 09/20/2017 6:45pm
Few Clouds
Few Clouds
 Wind from NW
Wind: NW 6 mph , 9 km/h
Temperature: 72°F , 22°C
Dew Point: 32°F , 0°C
Humidity: 23%
Barometer: 29.85 inHg , 1010.8 hPa
Clouds: Few Clouds
Visibility: 30 miles , 48 km
Cloud details: Few Clouds 10000 ft
2017/09/21 00:45 KBJC 210045Z 32005KT 30SM FEW100 22/00 A2985
KBKF - Buckley Angb/Den, Colorado, USA
Distance from station: E 16mi, 25km
Updated: 09/20/2017 6:58pm
Few Clouds
Few Clouds
 Wind from S
Wind: S 18 mph , 30 km/h
Temperature: 70°F , 21°C
Dew Point: 30°F , -1°C
Humidity: 23%
Barometer: 29.85 inHg , 1010.8 hPa
Clouds: Few Clouds
Visibility: 10 miles , 16 km
Cloud details: Few Clouds 10000 ft
2017/09/21 00:58 KBKF 210058Z 18016KT 10SM FEW100 21/M01 A2985 RMK AO2A SLP056 T02091008
 
KAPA - Denver/Arapahoe, Colorado, USA
Distance from station: SE 16mi, 26km
Updated: 09/20/2017 6:53pm
Few Clouds
Few Clouds
 Wind from S
Wind: S 9 mph , 15 km/h
Temperature: 68°F , 20°C
Dew Point: 30°F , -1°C
Humidity: 24%
Barometer: 29.86 inHg , 1011.2 hPa
Clouds: Few Clouds
Visibility: 10 miles , 16 km
Cloud details: Few Clouds 8000 ft
2017/09/21 00:53 KAPA 210053Z 19008KT 10SM FEW080 20/M01 A2986 RMK AO2 SLP074 T02001011
KEIK - Erie Muni, Colorado, USA
Distance from station: N 18mi, 29km
Updated: 09/20/2017 7:16pm
Clear
Clear
 Wind from calm
Wind: Calm
Temperature: 63°F , 17°C
Dew Point: 36°F , 2°C
Humidity: 37%
Barometer: 29.86 inHg , 1011.2 hPa
Clouds: Clear
Visibility: 10 miles , 16 km
2017/09/21 01:16 KEIK 210116Z AUTO 00000KT 10SM CLR 17/02 A2986 RMK AO2 T01740020
 
KBDU - Boulder Muni, Colorado, USA
Distance from station: NNW 22mi, 35km
Updated: 09/20/2017 7:16pm
Clear
Clear
 Wind from calm
Wind: Calm
Temperature: 66°F , 19°C
Dew Point: 36°F , 2°C
Humidity: 32%
Barometer: 29.82 inHg , 1009.8 hPa
Clouds: Clear
Visibility: 10 miles , 16 km
2017/09/21 01:16 KBDU 210116Z AUTO 00000KT 10SM CLR 19/02 A2982 RMK AO2
KDEN - Denver (dia), Colorado, USA
Distance from station: ENE 22mi, 35km
Updated: 09/20/2017 6:53pm
Few Clouds
Few Clouds
 Wind from S
Wind: S 17 mph , 28 km/h
Temperature: 70°F , 21°C
Dew Point: 28°F , -2°C
Humidity: 21%
Barometer: 29.83 inHg , 1010.2 hPa
Clouds: Few Clouds
Visibility: 10 miles , 16 km
Cloud details: Few Clouds 10000 ft
2017/09/21 00:53 KDEN 210053Z 17015KT 10SM FEW100 21/M02 A2983 RMK AO2 SLP048 T02111017
 
KFTG - Denver F. Range, Colorado, USA
Distance from station: E 26mi, 42km
Updated: 09/20/2017 6:48pm
Few Clouds
Few Clouds
 Wind from SSE
Wind: SSE 12 mph , 19 km/h, Gust: 17 mph , 28 km/h
Temperature: 73°F , 23°C
Dew Point: 28°F , -2°C
Humidity: 19%
Barometer: 29.85 inHg , 1010.8 hPa
Clouds: Few Clouds
Visibility: 10 miles , 16 km
Cloud details: Few Clouds 12000 ft
2017/09/21 00:48 KFTG 210048Z 16010G15KT 10SM FEW120 23/M02 A2985
KLMO - Longmont/Vbrand, Colorado, USA
Distance from station: NNW 29mi, 47km
Updated: 09/20/2017 7:15pm
Clear
Clear
 Wind from WNW
Wind: WNW 3 mph , 6 km/h
Temperature: 68°F , 20°C
Dew Point: 37°F , 3°C
Humidity: 33%
Barometer: 29.83 inHg , 1010.2 hPa
Clouds: Clear
Visibility: 10 miles , 16 km
2017/09/21 01:15 KLMO 210115Z AUTO 30003KT 10SM CLR 20/03 A2983 RMK AO2 T01950030
 
K0CO - Berthoud Pass, Colorado, USA
Distance from station: W 39mi, 62km
Updated: 09/20/2017 7:22pm
Clear
Clear
 Wind from WSW
Wind: WSW 9 mph , 15 km/h, Gust: 26 mph , 43 km/h
Temperature: 45°F , 7°C
Wind Chill: 40°F , 4°C
Dew Point: 36°F , 2°C
Humidity: 71%
Barometer: 30.31 inHg , 1026.4 hPa
Clouds: Clear
Visibility: 10 miles , 16 km
2017/09/21 01:22 K0CO 210122Z AUTO 25008G23KT 10SM CLR 07/02 A3031 RMK AO2
KMNH - Monument/Elbert, Colorado, USA
Distance from station: SSE 43mi, 68km
Updated: 09/20/2017 7:08pm
Clear
Clear
 Wind from S
Wind: S 21 mph , 33 km/h, Gust: 30 mph , 48 km/h
Temperature: 59°F , 15°C
Dew Point: 30°F , -1°C
Humidity: 34%
Barometer: 29.97 inHg , 1014.9 hPa
Clouds: Clear
Visibility: 10 miles , 16 km
2017/09/21 01:08 KMNH 210108Z AUTO 18018G26KT 10SM CLR 15/M01 A2997 RMK AO2
 
KFNL - Ft Collins/Lovel, Colorado, USA
Distance from station: N 48mi, 78km
Updated: 09/20/2017 6:56pm
Clear
Clear
 Wind from varies
Wind: varies 5 mph , 7 km/h
Temperature: 72°F , 22°C
Dew Point: 36°F , 2°C
Humidity: 27%
Barometer: 29.81 inHg , 1009.5 hPa
Clouds: Clear
Visibility: 10 miles , 16 km
2017/09/21 00:56 KFNL 210056Z AUTO VRB04KT 10SM CLR 22/02 A2981 RMK AO2 SLP055 T02220017